createdAt,value
2023-05-15T00:00:44.249Z,5.13
2023-05-15T00:03:12.337Z,2.93
2023-05-15T00:05:40.008Z,3.53
2023-05-15T00:08:06.966Z,2.93
2023-05-15T00:10:33.773Z,3.50
2023-05-15T00:13:00.577Z,2.80
2023-05-15T00:15:27.583Z,3.23
2023-05-15T00:17:54.617Z,2.80
2023-05-15T00:20:21.517Z,3.77
2023-05-15T00:22:48.334Z,3.03
2023-05-15T00:25:15.292Z,3.53
2023-05-15T00:27:42.108Z,3.20
2023-05-15T00:30:09.463Z,3.60
2023-05-15T00:32:36.283Z,2.97
2023-05-15T00:35:03.232Z,3.70
2023-05-15T00:37:30.964Z,4.33
2023-05-15T00:39:57.750Z,3.17
2023-05-15T00:42:25.834Z,3.20
2023-05-15T00:44:53.763Z,2.83
2023-05-15T00:47:22.355Z,2.73
2023-05-15T00:49:51.175Z,3.67
2023-05-15T00:52:20.639Z,2.40
2023-05-15T00:54:48.477Z,2.60
2023-05-15T00:57:17.111Z,3.37
2023-05-15T00:59:45.428Z,2.77
2023-05-15T01:02:15.889Z,3.23
2023-05-15T01:04:42.828Z,3.67
2023-05-15T01:07:09.593Z,4.33
2023-05-15T01:09:38.468Z,4.40
2023-05-15T01:12:09.305Z,4.90
2023-05-15T01:14:36.054Z,4.23
2023-05-15T01:17:03.185Z,5.37
2023-05-15T01:19:30.875Z,5.13
2023-05-15T01:22:28.955Z,10.60
2023-05-15T01:25:35.715Z,4.67
2023-05-15T01:28:25.457Z,4.27
2023-05-15T01:30:55.223Z,3.67
2023-05-15T01:33:29.581Z,6.17
2023-05-15T01:36:05.888Z,4.23
2023-05-15T01:38:55.832Z,4.73
2023-05-15T01:41:31.604Z,4.67
2023-05-15T01:44:20.162Z,4.60
2023-05-15T01:46:51.133Z,7.93
2023-05-15T01:49:19.788Z,5.43
2023-05-15T01:51:50.903Z,4.80
2023-05-15T01:54:19.423Z,5.23
2023-05-15T01:56:46.443Z,6.70
2023-05-15T01:59:15.263Z,5.13
2023-05-15T02:01:42.805Z,6.43
2023-05-15T02:04:11.208Z,6.63
2023-05-15T02:06:39.522Z,4.77
2023-05-15T02:09:07.667Z,4.47
2023-05-15T02:11:35.172Z,5.20
2023-05-15T02:14:04.965Z,6.73
2023-05-15T02:16:31.880Z,6.50
2023-05-15T02:18:58.794Z,5.10
2023-05-15T02:21:26.110Z,4.90
2023-05-15T02:23:52.904Z,7.50
2023-05-15T02:26:47.633Z,5.87
2023-05-15T02:29:31.642Z,4.67
2023-05-15T02:32:14.673Z,5.87
2023-05-15T02:35:04.932Z,5.27
2023-05-15T02:37:35.018Z,6.23
2023-05-15T02:40:06.979Z,9.40
2023-05-15T02:42:36.124Z,6.83
2023-05-15T02:45:04.327Z,7.60
2023-05-15T02:47:32.916Z,6.87
2023-05-15T02:50:01.404Z,6.07
2023-05-15T02:52:28.269Z,5.60
2023-05-15T02:54:55.079Z,5.87
2023-05-15T02:57:21.932Z,5.70
2023-05-15T02:59:48.870Z,5.47
2023-05-15T03:02:15.770Z,5.33
2023-05-15T03:04:42.666Z,6.40
2023-05-15T03:07:09.511Z,6.07
2023-05-15T03:09:36.428Z,8.13
2023-05-15T03:12:03.279Z,7.43
2023-05-15T03:14:30.074Z,8.20
2023-05-15T03:16:56.833Z,7.27
2023-05-15T03:19:23.626Z,7.67
2023-05-15T03:21:50.390Z,9.40
2023-05-15T03:24:17.217Z,8.13
2023-05-15T03:26:45.103Z,6.97
2023-05-15T03:29:13.115Z,5.47
2023-05-15T03:31:39.868Z,6.00
2023-05-15T03:34:06.717Z,5.90
2023-05-15T03:36:33.504Z,5.47
2023-05-15T03:39:00.377Z,5.07
2023-05-15T03:41:27.914Z,4.50
2023-05-15T03:43:54.726Z,4.03
2023-05-15T03:46:21.529Z,4.73
2023-05-15T03:48:48.314Z,3.87
2023-05-15T03:51:15.334Z,3.00
2023-05-15T03:53:42.116Z,2.90
2023-05-15T03:56:08.979Z,3.83
2023-05-15T03:58:35.862Z,5.17
2023-05-15T04:01:02.708Z,4.97
2023-05-15T04:03:29.539Z,4.93
2023-05-15T04:05:56.387Z,4.80
2023-05-15T04:08:23.146Z,4.60
2023-05-15T04:10:49.907Z,4.53
2023-05-15T04:13:16.631Z,4.63
2023-05-15T04:15:43.426Z,4.20
2023-05-15T04:18:10.206Z,6.03
2023-05-15T04:20:36.951Z,8.37
2023-05-15T04:23:06.518Z,7.03
2023-05-15T04:25:33.331Z,5.53
2023-05-15T04:28:00.143Z,7.00
2023-05-15T04:30:26.951Z,9.53
2023-05-15T04:32:53.967Z,7.83
2023-05-15T04:35:20.787Z,7.00
2023-05-15T04:37:47.700Z,5.10
2023-05-15T04:40:17.280Z,5.40
2023-05-15T04:42:44.065Z,6.47
2023-05-15T04:45:11.089Z,5.17
2023-05-15T04:47:38.333Z,5.67
2023-05-15T04:50:06.710Z,6.50
2023-05-15T04:52:33.680Z,8.47
2023-05-15T04:55:00.831Z,11.63
2023-05-15T04:57:28.040Z,12.43
2023-05-15T04:59:54.856Z,8.37
2023-05-15T05:02:22.704Z,5.80
2023-05-15T05:04:49.960Z,7.13
2023-05-15T05:07:17.112Z,6.43
2023-05-15T05:09:44.399Z,7.07
2023-05-15T05:12:11.619Z,8.57
2023-05-15T05:14:40.634Z,9.30
2023-05-15T05:17:07.539Z,7.63
2023-05-15T05:19:34.333Z,6.47
2023-05-15T05:22:04.708Z,6.83
2023-05-15T05:24:32.204Z,6.80
2023-05-15T05:26:59.129Z,7.70
2023-05-15T05:29:26.182Z,7.87
2023-05-15T05:31:53.537Z,6.33
2023-05-15T05:34:20.568Z,6.17
2023-05-15T05:36:47.529Z,6.97
2023-05-15T05:39:16.228Z,7.23
2023-05-15T05:41:43.778Z,5.27
2023-05-15T05:44:10.646Z,5.77
2023-05-15T05:46:37.514Z,5.70
2023-05-15T05:49:04.368Z,6.10
2023-05-15T05:51:31.763Z,5.93
2023-05-15T05:53:58.649Z,7.00
2023-05-15T05:56:26.570Z,6.67
2023-05-15T05:58:53.652Z,7.97
2023-05-15T06:01:21.061Z,5.67
2023-05-15T06:03:48.147Z,5.90
2023-05-15T06:06:15.036Z,6.83
2023-05-15T06:08:41.838Z,6.73
2023-05-15T06:11:08.651Z,5.20
2023-05-15T06:13:35.889Z,5.00
2023-05-15T06:16:02.796Z,4.93
2023-05-15T06:18:29.699Z,5.53
2023-05-15T06:20:58.853Z,9.17
2023-05-15T06:23:26.679Z,5.80
2023-05-15T06:25:53.535Z,4.20
2023-05-15T06:28:20.356Z,4.23
2023-05-15T06:30:47.237Z,4.50
2023-05-15T06:33:14.103Z,4.37
2023-05-15T06:35:41.338Z,3.93
2023-05-15T06:38:08.193Z,3.90
2023-05-15T06:40:35.460Z,5.50
2023-05-15T06:43:02.261Z,4.10
2023-05-15T06:45:29.204Z,3.63
2023-05-15T06:47:57.043Z,3.40
2023-05-15T06:50:24.923Z,3.80
2023-05-15T06:52:51.758Z,4.17
2023-05-15T06:55:18.668Z,3.63
2023-05-15T06:57:45.411Z,3.63
2023-05-15T07:00:12.919Z,6.43
2023-05-15T07:02:39.715Z,3.73
2023-05-15T07:05:07.222Z,5.23
2023-05-15T07:07:34.025Z,5.10
2023-05-15T07:10:00.757Z,3.53
2023-05-15T07:12:27.576Z,4.07
2023-05-15T07:14:54.439Z,4.77
2023-05-15T07:17:21.367Z,3.40
2023-05-15T07:19:48.178Z,3.10
2023-05-15T07:22:14.923Z,5.90
2023-05-15T07:24:41.723Z,3.53
2023-05-15T07:27:08.523Z,3.33
2023-05-15T07:29:35.272Z,5.50
2023-05-15T07:32:02.079Z,3.90
2023-05-15T07:34:28.963Z,4.07
2023-05-15T07:36:55.727Z,4.17
2023-05-15T07:39:22.555Z,3.43
2023-05-15T07:41:49.849Z,2.70
2023-05-15T07:44:16.619Z,4.70
2023-05-15T07:46:43.478Z,2.80
2023-05-15T07:49:10.558Z,3.77
2023-05-15T07:51:37.616Z,3.40
2023-05-15T07:54:04.781Z,2.17
2023-05-15T07:56:32.577Z,2.60
2023-05-15T07:58:59.410Z,3.80
2023-05-15T08:01:26.272Z,2.70
2023-05-15T08:03:53.119Z,3.83
2023-05-15T08:06:20.215Z,2.57
2023-05-15T08:08:47.003Z,3.25
2023-05-15T08:11:13.802Z,2.70
2023-05-15T08:13:40.648Z,2.25
2023-05-15T08:16:07.580Z,2.30
2023-05-15T08:18:34.561Z,2.35
2023-05-15T08:21:02.463Z,3.28
2023-05-15T08:23:30.391Z,3.55
2023-05-15T08:25:57.164Z,2.75
2023-05-15T08:28:23.981Z,2.53
2023-05-15T08:30:50.811Z,2.25
2023-05-15T08:33:17.634Z,2.47
2023-05-15T08:35:44.612Z,2.95
2023-05-15T08:38:11.388Z,2.50
2023-05-15T08:40:40.237Z,2.60
2023-05-15T08:43:15.613Z,2.78
2023-05-15T08:45:43.333Z,4.38
2023-05-15T08:48:19.527Z,2.92
2023-05-15T08:50:47.111Z,2.80
2023-05-15T08:53:14.303Z,2.17
2023-05-15T08:55:42.203Z,2.10
2023-05-15T08:58:09.437Z,5.22
2023-05-15T09:00:37.526Z,2.42
2023-05-15T09:03:05.109Z,2.00
2023-05-15T09:05:32.337Z,1.88
2023-05-15T09:08:01.989Z,3.30
2023-05-15T09:10:29.866Z,2.00
2023-05-15T09:12:57.850Z,2.67
2023-05-15T09:15:25.842Z,3.10
2023-05-15T09:17:52.948Z,2.45
2023-05-15T09:20:40.439Z,2.30
2023-05-15T09:23:23.157Z,2.38
2023-05-15T09:25:53.456Z,2.28
2023-05-15T09:28:33.812Z,2.25
2023-05-15T09:31:05.446Z,2.20
2023-05-15T09:33:40.221Z,3.30
2023-05-15T09:36:08.750Z,3.70
2023-05-15T09:38:41.606Z,2.63
2023-05-15T09:41:09.338Z,2.47
2023-05-15T09:43:40.925Z,2.20
2023-05-15T09:46:09.547Z,2.50
2023-05-15T09:48:36.888Z,4.72
2023-05-15T09:51:07.580Z,2.70
2023-05-15T09:53:35.780Z,2.00
2023-05-15T09:56:03.496Z,3.08
2023-05-15T09:58:30.380Z,3.55
2023-05-15T10:01:01.030Z,3.60
2023-05-15T10:03:27.995Z,2.42
2023-05-15T10:06:03.397Z,2.17
2023-05-15T10:08:30.542Z,2.53
2023-05-15T10:11:00.935Z,4.45
2023-05-15T10:13:31.459Z,3.72
2023-05-15T10:15:59.039Z,6.93
2023-05-15T10:18:30.427Z,4.38
2023-05-15T10:21:01.274Z,4.72
2023-05-15T10:23:29.674Z,3.90
2023-05-15T10:26:03.207Z,4.68
2023-05-15T10:28:31.668Z,5.88
2023-05-15T10:31:01.673Z,3.35
2023-05-15T10:33:30.066Z,3.10
2023-05-15T10:35:58.618Z,3.03
2023-05-15T10:38:26.583Z,7.65
2023-05-15T10:41:09.121Z,2.80
2023-05-15T10:43:43.506Z,3.33
2023-05-15T10:46:11.491Z,2.50
2023-05-15T10:48:39.092Z,2.75
2023-05-15T10:51:13.372Z,2.78
2023-05-15T10:53:40.536Z,7.75
2023-05-15T10:56:13.769Z,3.13
2023-05-15T10:58:48.315Z,3.90
2023-05-15T11:01:27.985Z,4.20
2023-05-15T11:04:14.674Z,3.58
2023-05-15T11:06:46.086Z,3.25
2023-05-15T11:09:27.170Z,5.63
2023-05-15T11:11:57.077Z,3.85
2023-05-15T11:14:25.851Z,3.03
2023-05-15T11:16:57.426Z,2.45
2023-05-15T11:19:33.394Z,3.05
2023-05-15T11:22:16.891Z,3.15
2023-05-15T11:24:58.627Z,5.88
2023-05-15T11:27:26.352Z,1.50
2023-05-15T11:30:15.905Z,1.95
2023-05-15T11:33:01.616Z,1.98
2023-05-15T11:35:33.998Z,5.57
2023-05-15T11:38:10.992Z,2.58
2023-05-15T11:40:52.624Z,2.90
2023-05-15T11:43:27.253Z,1.88
2023-05-15T11:46:00.114Z,2.33
2023-05-15T11:48:41.698Z,3.53
2023-05-15T11:51:18.522Z,1.80
2023-05-15T11:53:46.030Z,1.95
2023-05-15T11:56:28.285Z,2.00
2023-05-15T11:58:57.491Z,3.22
2023-05-15T12:01:24.736Z,3.00
2023-05-15T12:03:52.317Z,3.13
2023-05-15T12:06:19.671Z,2.42
2023-05-15T12:08:52.484Z,2.60
2023-05-15T12:11:22.786Z,2.63
2023-05-15T12:13:52.793Z,9.30
2023-05-15T12:16:25.122Z,2.75
2023-05-15T12:18:52.304Z,2.15
2023-05-15T12:21:19.451Z,3.03
2023-05-15T12:24:06.359Z,6.03
2023-05-15T12:26:34.812Z,2.03
2023-05-15T12:29:02.137Z,2.30
2023-05-15T12:31:29.883Z,2.00
2023-05-15T12:33:57.301Z,1.52
2023-05-15T12:36:24.261Z,3.72
2023-05-15T12:38:51.312Z,2.17
2023-05-15T12:41:20.023Z,1.50
2023-05-15T12:43:46.920Z,2.30
2023-05-15T12:46:15.478Z,2.38
2023-05-15T12:48:42.569Z,4.75
2023-05-15T12:51:09.570Z,4.47
2023-05-15T12:53:39.827Z,3.35
2023-05-15T12:56:09.036Z,3.22
2023-05-15T12:58:36.675Z,3.35
2023-05-15T13:01:03.924Z,2.47
2023-05-15T13:03:31.955Z,5.38
2023-05-15T13:05:59.120Z,1.75
2023-05-15T13:08:26.214Z,2.42
2023-05-15T13:10:58.233Z,1.90
2023-05-15T13:13:45.815Z,2.00
2023-05-15T13:16:24.580Z,1.85
2023-05-15T13:18:52.040Z,2.13
2023-05-15T13:21:19.404Z,1.65
2023-05-15T13:23:46.373Z,3.90
2023-05-15T13:26:13.423Z,5.00
2023-05-15T13:28:40.488Z,2.63
2023-05-15T13:31:07.433Z,3.15
2023-05-15T13:33:35.726Z,1.70
2023-05-15T13:36:02.839Z,4.15
2023-05-15T13:38:29.787Z,4.28
2023-05-15T13:40:56.823Z,3.78
2023-05-15T13:43:25.830Z,2.47
2023-05-15T13:45:53.418Z,3.50
2023-05-15T13:48:20.350Z,2.28
2023-05-15T13:50:47.243Z,2.20
2023-05-15T13:53:16.996Z,1.73
2023-05-15T13:55:45.944Z,4.05
2023-05-15T13:58:13.412Z,3.03
2023-05-15T14:00:42.547Z,4.75
2023-05-15T14:03:11.235Z,4.28
2023-05-15T14:05:40.454Z,2.45
2023-05-15T14:08:07.396Z,2.75
2023-05-15T14:10:35.859Z,3.05
2023-05-15T14:13:02.776Z,2.95
2023-05-15T14:15:29.749Z,3.97
2023-05-15T14:17:56.645Z,3.83
2023-05-15T14:20:23.759Z,5.43
2023-05-15T14:22:50.682Z,3.63
2023-05-15T14:25:17.664Z,5.40
2023-05-15T14:27:44.614Z,4.95
2023-05-15T14:30:11.852Z,4.22
2023-05-15T14:32:38.785Z,4.97
2023-05-15T14:35:06.147Z,3.78
2023-05-15T14:37:33.185Z,2.85
2023-05-15T14:40:00.223Z,1.52
2023-05-15T14:42:27.381Z,2.72
2023-05-15T14:44:54.397Z,2.03
2023-05-15T14:47:21.432Z,6.03
2023-05-15T14:49:48.450Z,2.83
2023-05-15T14:52:15.699Z,2.60
2023-05-15T14:54:43.778Z,4.00
2023-05-15T14:57:12.670Z,3.47
2023-05-15T14:59:39.679Z,3.20
2023-05-15T15:02:07.059Z,2.47
2023-05-15T15:04:34.584Z,6.88
2023-05-15T15:07:05.131Z,4.57
2023-05-15T15:09:32.087Z,3.28
2023-05-15T15:11:59.099Z,2.13
2023-05-15T15:14:25.981Z,1.67
2023-05-15T15:16:52.894Z,3.65
2023-05-15T15:19:20.460Z,9.85
2023-05-15T15:21:47.728Z,15.90
2023-05-15T15:24:14.915Z,6.20
2023-05-15T15:26:41.828Z,3.80
2023-05-15T15:29:08.685Z,2.47
2023-05-15T15:31:35.767Z,3.47
2023-05-15T15:34:05.282Z,2.75
2023-05-15T15:36:32.894Z,2.97
2023-05-15T15:38:59.646Z,4.78
2023-05-15T15:41:26.492Z,7.47
2023-05-15T15:43:54.070Z,2.25
2023-05-15T15:46:21.119Z,4.35
2023-05-15T15:48:48.540Z,2.83
2023-05-15T15:51:15.353Z,2.13
2023-05-15T15:53:42.094Z,2.05
2023-05-15T15:56:08.953Z,2.92
2023-05-15T15:58:35.810Z,2.20
2023-05-15T16:01:03.018Z,5.30
2023-05-15T16:03:30.954Z,3.10
2023-05-15T16:05:59.865Z,2.38
2023-05-15T16:08:27.264Z,2.43
2023-05-15T16:10:54.892Z,2.53
2023-05-15T16:13:21.793Z,2.27
2023-05-15T16:15:48.652Z,2.65
2023-05-15T16:18:15.468Z,2.65
2023-05-15T16:20:42.342Z,2.42
2023-05-15T16:23:11.617Z,2.80
2023-05-15T16:25:38.504Z,1.75
2023-05-15T16:28:05.419Z,4.30
2023-05-15T16:30:47.384Z,2.25
2023-05-15T16:33:17.514Z,2.43
2023-05-15T16:35:44.732Z,2.23
2023-05-15T16:38:11.666Z,1.93
2023-05-15T16:40:39.017Z,5.97
2023-05-15T16:43:05.932Z,1.40
2023-05-15T16:45:32.956Z,3.53
2023-05-15T16:47:59.752Z,3.43
2023-05-15T16:50:27.028Z,4.03
2023-05-15T16:52:54.037Z,3.40
2023-05-15T16:55:20.982Z,2.00
2023-05-15T16:57:47.866Z,2.03
2023-05-15T17:00:15.876Z,4.90
2023-05-15T17:02:43.408Z,3.80
2023-05-15T17:05:11.524Z,2.23
2023-05-15T17:07:39.077Z,2.83
2023-05-15T17:10:08.032Z,3.10
2023-05-15T17:12:35.790Z,3.70
2023-05-15T17:15:03.756Z,1.93
2023-05-15T17:17:30.642Z,1.60
2023-05-15T17:19:57.734Z,1.90
2023-05-15T17:22:24.731Z,2.13
2023-05-15T17:24:54.427Z,2.20
2023-05-15T17:27:21.527Z,2.27
2023-05-15T17:29:48.522Z,2.43
2023-05-15T17:32:16.816Z,2.30
2023-05-15T17:34:44.760Z,1.70
2023-05-15T17:37:11.837Z,2.63
2023-05-15T17:39:38.684Z,3.80
2023-05-15T17:42:05.795Z,1.93
2023-05-15T17:44:32.661Z,2.17
2023-05-15T17:47:00.351Z,1.80
2023-05-15T17:49:28.448Z,1.87
2023-05-15T17:51:55.329Z,2.07
2023-05-15T17:54:22.274Z,5.73
2023-05-15T17:56:49.040Z,2.30
2023-05-15T17:59:16.159Z,1.80
2023-05-15T18:01:43.069Z,2.43
2023-05-15T18:04:10.410Z,4.23
2023-05-15T18:06:37.671Z,2.00
2023-05-15T18:09:05.141Z,1.77
2023-05-15T18:11:32.025Z,2.23
2023-05-15T18:13:59.189Z,2.60
2023-05-15T18:16:26.305Z,1.97
2023-05-15T18:18:53.400Z,2.13
2023-05-15T18:21:20.389Z,3.33
2023-05-15T18:23:47.255Z,3.93
2023-05-15T18:26:14.066Z,1.70
2023-05-15T18:28:40.935Z,2.67
2023-05-15T18:31:07.886Z,2.10
2023-05-15T18:33:34.788Z,2.70
2023-05-15T18:36:02.006Z,6.17
2023-05-15T18:38:28.951Z,1.97
2023-05-15T18:40:55.853Z,2.00
2023-05-15T18:43:22.731Z,1.60
2023-05-15T18:45:49.526Z,1.47
2023-05-15T18:48:16.566Z,2.30
2023-05-15T18:50:43.851Z,3.23
2023-05-15T18:53:10.703Z,2.10
2023-05-15T18:55:38.907Z,4.60
2023-05-15T18:58:06.061Z,1.77
2023-05-15T19:00:38.440Z,2.57
2023-05-15T19:03:06.821Z,2.10
2023-05-15T19:05:34.178Z,1.93
2023-05-15T19:08:01.463Z,2.43
2023-05-15T19:10:29.730Z,1.60
2023-05-15T19:12:57.578Z,1.63
2023-05-15T19:15:25.361Z,2.37
2023-05-15T19:17:52.625Z,1.80
2023-05-15T19:20:20.262Z,2.07
2023-05-15T19:22:47.104Z,2.23
2023-05-15T19:25:13.939Z,1.93
2023-05-15T19:27:41.264Z,1.90
2023-05-15T19:30:09.908Z,1.70
2023-05-15T19:32:37.230Z,1.90
2023-05-15T19:35:04.850Z,1.77
2023-05-15T19:37:31.664Z,2.57
2023-05-15T19:39:58.461Z,2.30
2023-05-15T19:42:26.063Z,2.17
2023-05-15T19:44:52.987Z,2.13
2023-05-15T19:47:19.832Z,2.63
2023-05-15T19:49:46.773Z,3.57
2023-05-15T19:52:13.605Z,2.13
2023-05-15T19:54:40.495Z,2.10
2023-05-15T19:57:07.483Z,2.27
2023-05-15T19:59:34.256Z,2.20
2023-05-15T20:02:02.681Z,2.30
2023-05-15T20:04:29.762Z,2.40
2023-05-15T20:06:56.607Z,2.60
2023-05-15T20:09:23.436Z,3.50
2023-05-15T20:11:50.340Z,3.50
2023-05-15T20:14:17.104Z,5.03
2023-05-15T20:16:43.958Z,8.83
2023-05-15T20:19:11.091Z,4.83
2023-05-15T20:21:39.030Z,4.23
2023-05-15T20:24:06.885Z,3.90
2023-05-15T20:26:35.976Z,4.77
2023-05-15T20:29:03.514Z,4.20
2023-05-15T20:31:30.482Z,4.73
2023-05-15T20:33:57.369Z,6.40
2023-05-15T20:36:25.627Z,4.83
2023-05-15T20:38:52.818Z,3.80
2023-05-15T20:41:22.267Z,4.07
2023-05-15T20:43:49.875Z,3.53
2023-05-15T20:46:17.030Z,3.47
2023-05-15T20:48:44.177Z,4.20
2023-05-15T20:51:11.053Z,6.60
2023-05-15T20:53:37.858Z,4.60
2023-05-15T20:56:04.759Z,4.10
2023-05-15T20:58:31.682Z,4.50
2023-05-15T21:01:00.960Z,4.07
2023-05-15T21:03:29.168Z,4.00
2023-05-15T21:05:57.528Z,4.83
2023-05-15T21:08:24.838Z,6.07
2023-05-15T21:10:53.169Z,7.10
2023-05-15T21:13:20.062Z,7.53
2023-05-15T21:15:47.052Z,9.87
2023-05-15T21:18:14.160Z,6.50
2023-05-15T21:20:41.758Z,5.47
2023-05-15T21:23:08.742Z,4.67
2023-05-15T21:25:35.616Z,5.00
2023-05-15T21:28:02.599Z,6.30
2023-05-15T21:30:29.577Z,4.93
2023-05-15T21:32:56.628Z,3.60
2023-05-15T21:35:25.110Z,4.23
2023-05-15T21:37:51.876Z,3.50
2023-05-15T21:40:18.832Z,3.60
2023-05-15T21:42:45.965Z,3.70
2023-05-15T21:45:12.934Z,3.43
2023-05-15T21:47:40.395Z,3.93
2023-05-15T21:50:07.465Z,4.37
2023-05-15T21:52:34.503Z,3.20
2023-05-15T21:55:01.329Z,3.97
2023-05-15T21:57:28.811Z,3.77
2023-05-15T21:59:55.688Z,3.90
2023-05-15T22:02:22.710Z,3.87
2023-05-15T22:04:49.611Z,3.40
2023-05-15T22:07:16.536Z,3.40
2023-05-15T22:09:43.871Z,4.50
2023-05-15T22:12:11.080Z,4.23
2023-05-15T22:14:44.263Z,3.80
2023-05-15T22:17:19.053Z,4.20
2023-05-15T22:19:46.292Z,7.73
2023-05-15T22:22:13.778Z,6.40
2023-05-15T22:24:40.738Z,7.27
2023-05-15T22:27:07.537Z,6.73
2023-05-15T22:29:34.385Z,6.37
2023-05-15T22:32:01.357Z,7.10
2023-05-15T22:34:29.856Z,6.10
2023-05-15T22:36:56.994Z,7.10
2023-05-15T22:39:23.886Z,5.80
2023-05-15T22:41:50.691Z,9.90
2023-05-15T22:44:17.525Z,6.90
2023-05-15T22:46:44.412Z,6.53
2023-05-15T22:49:19.018Z,5.53
2023-05-15T22:51:45.942Z,6.60
2023-05-15T22:54:12.727Z,5.77
2023-05-15T22:56:39.480Z,6.23
2023-05-15T22:59:06.713Z,6.80
2023-05-15T23:01:33.696Z,7.07
2023-05-15T23:04:00.710Z,7.27
2023-05-15T23:06:27.531Z,7.10
2023-05-15T23:08:54.489Z,8.23
2023-05-15T23:11:21.431Z,6.17
2023-05-15T23:13:48.209Z,5.93
2023-05-15T23:16:14.989Z,5.43
2023-05-15T23:18:42.200Z,5.87
2023-05-15T23:21:09.117Z,5.77
2023-05-15T23:23:36.047Z,6.20
2023-05-15T23:26:02.898Z,5.97
2023-05-15T23:28:29.720Z,5.57
2023-05-15T23:30:56.654Z,5.63
2023-05-15T23:33:23.482Z,5.70
2023-05-15T23:35:50.341Z,6.03
2023-05-15T23:38:17.197Z,6.57
2023-05-15T23:40:44.015Z,7.93
2023-05-15T23:43:11.052Z,5.73
2023-05-15T23:45:37.897Z,5.67
2023-05-15T23:48:04.843Z,4.83
2023-05-15T23:50:31.857Z,5.07
2023-05-15T23:52:58.623Z,4.03
2023-05-15T23:55:25.496Z,4.13
2023-05-15T23:57:52.298Z,4.63
